sensor_id;sensor_type;location;lat;lon;timestamp;temperature;humidity
29551;DHT22;16488;52.396;10.696;2024-03-17T00:00:45;3.70;99.90
29551;DHT22;16488;52.396;10.696;2024-03-17T00:03:11;3.70;99.90
29551;DHT22;16488;52.396;10.696;2024-03-17T00:05:37;3.70;99.90
29551;DHT22;16488;52.396;10.696;2024-03-17T00:08:03;3.70;99.90
29551;DHT22;16488;52.396;10.696;2024-03-17T00:10:31;3.70;99.90
29551;DHT22;16488;52.396;10.696;2024-03-17T00:12:57;3.70;99.90
29551;DHT22;16488;52.396;10.696;2024-03-17T00:15:23;3.60;99.90
29551;DHT22;16488;52.396;10.696;2024-03-17T00:17:49;3.50;99.90
29551;DHT22;16488;52.396;10.696;2024-03-17T00:20:14;3.60;99.90
29551;DHT22;16488;52.396;10.696;2024-03-17T00:22:48;3.50;99.90
29551;DHT22;16488;52.396;10.696;2024-03-17T00:25:14;3.50;99.90
29551;DHT22;16488;52.396;10.696;2024-03-17T00:27:39;3.40;99.90
29551;DHT22;16488;52.396;10.696;2024-03-17T00:30:08;3.40;99.90
29551;DHT22;16488;52.396;10.696;2024-03-17T00:32:38;3.30;99.90
29551;DHT22;16488;52.396;10.696;2024-03-17T00:35:03;3.40;99.90
29551;DHT22;16488;52.396;10.696;2024-03-17T00:37:30;3.40;99.90
29551;DHT22;16488;52.396;10.696;2024-03-17T00:39:55;3.40;99.90
29551;DHT22;16488;52.396;10.696;2024-03-17T00:42:21;3.50;99.90
29551;DHT22;16488;52.396;10.696;2024-03-17T00:44:46;3.50;99.90
29551;DHT22;16488;52.396;10.696;2024-03-17T00:47:12;3.50;99.90
29551;DHT22;16488;52.396;10.696;2024-03-17T00:49:37;3.60;99.90
29551;DHT22;16488;52.396;10.696;2024-03-17T00:52:03;3.60;99.90
29551;DHT22;16488;52.396;10.696;2024-03-17T00:54:29;3.70;99.90
29551;DHT22;16488;52.396;10.696;2024-03-17T00:56:54;3.70;99.90
29551;DHT22;16488;52.396;10.696;2024-03-17T00:59:20;3.70;99.90
29551;DHT22;16488;52.396;10.696;2024-03-17T01:01:46;3.70;99.90
29551;DHT22;16488;52.396;10.696;2024-03-17T01:04:11;3.70;99.90
29551;DHT22;16488;52.396;10.696;2024-03-17T01:06:37;3.60;99.90
29551;DHT22;16488;52.396;10.696;2024-03-17T01:09:06;3.60;99.90
29551;DHT22;16488;52.396;10.696;2024-03-17T01:11:31;3.50;99.90
29551;DHT22;16488;52.396;10.696;2024-03-17T01:13:57;3.40;99.90
29551;DHT22;16488;52.396;10.696;2024-03-17T01:16:22;3.30;99.90
29551;DHT22;16488;52.396;10.696;2024-03-17T01:18:48;3.30;99.90
29551;DHT22;16488;52.396;10.696;2024-03-17T01:21:14;3.20;99.90
29551;DHT22;16488;52.396;10.696;2024-03-17T01:23:39;3.30;99.90
29551;DHT22;16488;52.396;10.696;2024-03-17T01:26:05;3.20;99.90
29551;DHT22;16488;52.396;10.696;2024-03-17T01:28:30;3.30;99.90
29551;DHT22;16488;52.396;10.696;2024-03-17T01:30:56;3.30;99.90
29551;DHT22;16488;52.396;10.696;2024-03-17T01:33:22;3.30;99.90
29551;DHT22;16488;52.396;10.696;2024-03-17T01:35:47;3.30;99.90
29551;DHT22;16488;52.396;10.696;2024-03-17T01:38:13;3.30;99.90
29551;DHT22;16488;52.396;10.696;2024-03-17T01:40:38;3.30;99.90
29551;DHT22;16488;52.396;10.696;2024-03-17T01:43:05;3.20;99.90
29551;DHT22;16488;52.396;10.696;2024-03-17T01:45:35;3.20;99.90
29551;DHT22;16488;52.396;10.696;2024-03-17T01:48:01;3.30;99.90
29551;DHT22;16488;52.396;10.696;2024-03-17T01:50:34;3.20;99.90
29551;DHT22;16488;52.396;10.696;2024-03-17T01:53:01;3.20;99.90
29551;DHT22;16488;52.396;10.696;2024-03-17T01:55:27;3.10;99.90
29551;DHT22;16488;52.396;10.696;2024-03-17T01:57:53;3.10;99.90
29551;DHT22;16488;52.396;10.696;2024-03-17T02:00:19;3.10;99.90
29551;DHT22;16488;52.396;10.696;2024-03-17T02:02:45;3.10;99.90
29551;DHT22;16488;52.396;10.696;2024-03-17T02:05:10;3.10;99.90
29551;DHT22;16488;52.396;10.696;2024-03-17T02:07:36;3.10;99.90
29551;DHT22;16488;52.396;10.696;2024-03-17T02:10:02;3.10;99.90
29551;DHT22;16488;52.396;10.696;2024-03-17T02:12:29;3.20;99.90
29551;DHT22;16488;52.396;10.696;2024-03-17T02:14:56;3.20;99.90
29551;DHT22;16488;52.396;10.696;2024-03-17T02:17:22;3.20;99.90
29551;DHT22;16488;52.396;10.696;2024-03-17T02:19:48;3.20;99.90
29551;DHT22;16488;52.396;10.696;2024-03-17T02:22:14;3.20;99.90
29551;DHT22;16488;52.396;10.696;2024-03-17T02:24:40;3.20;99.90
29551;DHT22;16488;52.396;10.696;2024-03-17T02:27:06;3.20;99.90
29551;DHT22;16488;52.396;10.696;2024-03-17T02:29:32;3.20;99.90
29551;DHT22;16488;52.396;10.696;2024-03-17T02:31:57;3.10;99.90
29551;DHT22;16488;52.396;10.696;2024-03-17T02:34:23;3.10;99.90
29551;DHT22;16488;52.396;10.696;2024-03-17T02:36:49;3.10;99.90
29551;DHT22;16488;52.396;10.696;2024-03-17T02:39:14;3.10;99.90
29551;DHT22;16488;52.396;10.696;2024-03-17T02:41:58;3.20;99.90
29551;DHT22;16488;52.396;10.696;2024-03-17T02:44:24;3.10;99.90
29551;DHT22;16488;52.396;10.696;2024-03-17T02:46:49;3.10;99.90
29551;DHT22;16488;52.396;10.696;2024-03-17T02:49:15;3.10;99.90
29551;DHT22;16488;52.396;10.696;2024-03-17T02:51:43;2.90;99.90
29551;DHT22;16488;52.396;10.696;2024-03-17T02:54:09;2.90;99.90
29551;DHT22;16488;52.396;10.696;2024-03-17T02:56:34;2.70;99.90
29551;DHT22;16488;52.396;10.696;2024-03-17T02:59:00;2.50;99.90
29551;DHT22;16488;52.396;10.696;2024-03-17T03:01:25;2.40;99.90
29551;DHT22;16488;52.396;10.696;2024-03-17T03:03:51;2.20;99.90
29551;DHT22;16488;52.396;10.696;2024-03-17T03:06:16;2.20;99.90
29551;DHT22;16488;52.396;10.696;2024-03-17T03:08:45;2.10;99.90
29551;DHT22;16488;52.396;10.696;2024-03-17T03:11:13;1.90;99.90
29551;DHT22;16488;52.396;10.696;2024-03-17T03:13:39;1.70;99.90
29551;DHT22;16488;52.396;10.696;2024-03-17T03:16:06;1.60;99.90
29551;DHT22;16488;52.396;10.696;2024-03-17T03:18:31;1.50;99.90
29551;DHT22;16488;52.396;10.696;2024-03-17T03:20:57;1.40;99.90
29551;DHT22;16488;52.396;10.696;2024-03-17T03:23:22;1.30;99.90
29551;DHT22;16488;52.396;10.696;2024-03-17T03:25:54;1.20;99.90
29551;DHT22;16488;52.396;10.696;2024-03-17T03:28:19;1.10;99.90
29551;DHT22;16488;52.396;10.696;2024-03-17T03:30:45;0.90;99.90
29551;DHT22;16488;52.396;10.696;2024-03-17T03:33:10;1.00;99.90
29551;DHT22;16488;52.396;10.696;2024-03-17T03:35:36;1.00;99.90
29551;DHT22;16488;52.396;10.696;2024-03-17T03:38:01;0.90;99.90
29551;DHT22;16488;52.396;10.696;2024-03-17T03:40:28;0.70;99.90
29551;DHT22;16488;52.396;10.696;2024-03-17T03:42:53;0.60;99.90
29551;DHT22;16488;52.396;10.696;2024-03-17T03:45:19;0.50;99.90
29551;DHT22;16488;52.396;10.696;2024-03-17T03:47:45;0.50;99.90
29551;DHT22;16488;52.396;10.696;2024-03-17T03:50:11;0.50;99.90
29551;DHT22;16488;52.396;10.696;2024-03-17T03:52:37;0.40;99.90
29551;DHT22;16488;52.396;10.696;2024-03-17T03:55:03;0.40;99.90
29551;DHT22;16488;52.396;10.696;2024-03-17T03:57:29;0.30;99.90
29551;DHT22;16488;52.396;10.696;2024-03-17T03:59:55;0.20;99.90
29551;DHT22;16488;52.396;10.696;2024-03-17T04:02:21;0.20;99.90
29551;DHT22;16488;52.396;10.696;2024-03-17T04:04:46;0.10;99.90
29551;DHT22;16488;52.396;10.696;2024-03-17T04:07:13;0.00;99.90
29551;DHT22;16488;52.396;10.696;2024-03-17T04:09:38;0.00;99.90
29551;DHT22;16488;52.396;10.696;2024-03-17T04:12:04;-0.10;99.90
29551;DHT22;16488;52.396;10.696;2024-03-17T04:14:29;-0.10;99.90
29551;DHT22;16488;52.396;10.696;2024-03-17T04:16:56;-0.10;99.90
29551;DHT22;16488;52.396;10.696;2024-03-17T04:19:21;0.00;99.90
29551;DHT22;16488;52.396;10.696;2024-03-17T04:21:47;0.00;99.90
29551;DHT22;16488;52.396;10.696;2024-03-17T04:24:12;-0.10;99.90
29551;DHT22;16488;52.396;10.696;2024-03-17T04:26:38;-0.10;99.90
29551;DHT22;16488;52.396;10.696;2024-03-17T04:29:03;-0.20;99.90
29551;DHT22;16488;52.396;10.696;2024-03-17T04:31:31;-0.10;99.90
29551;DHT22;16488;52.396;10.696;2024-03-17T04:33:56;-0.10;99.90
29551;DHT22;16488;52.396;10.696;2024-03-17T04:36:22;-0.10;99.90
29551;DHT22;16488;52.396;10.696;2024-03-17T04:38:47;0.00;99.90
29551;DHT22;16488;52.396;10.696;2024-03-17T04:41:16;0.10;99.90
29551;DHT22;16488;52.396;10.696;2024-03-17T04:43:41;0.20;99.90
29551;DHT22;16488;52.396;10.696;2024-03-17T04:46:07;0.30;99.90
29551;DHT22;16488;52.396;10.696;2024-03-17T04:48:35;0.30;99.90
29551;DHT22;16488;52.396;10.696;2024-03-17T04:51:00;0.30;99.90
29551;DHT22;16488;52.396;10.696;2024-03-17T04:53:26;0.20;99.90
29551;DHT22;16488;52.396;10.696;2024-03-17T04:56:05;0.30;99.90
29551;DHT22;16488;52.396;10.696;2024-03-17T04:58:31;0.40;99.90
29551;DHT22;16488;52.396;10.696;2024-03-17T05:00:57;0.40;99.90
29551;DHT22;16488;52.396;10.696;2024-03-17T05:03:22;0.40;99.90
29551;DHT22;16488;52.396;10.696;2024-03-17T05:05:48;0.40;99.90
29551;DHT22;16488;52.396;10.696;2024-03-17T05:08:14;0.40;99.90
29551;DHT22;16488;52.396;10.696;2024-03-17T05:10:40;0.50;99.90
29551;DHT22;16488;52.396;10.696;2024-03-17T05:13:05;0.50;99.90
29551;DHT22;16488;52.396;10.696;2024-03-17T05:15:31;0.50;99.90
29551;DHT22;16488;52.396;10.696;2024-03-17T05:17:56;0.50;99.90
29551;DHT22;16488;52.396;10.696;2024-03-17T05:20:22;0.50;99.90
29551;DHT22;16488;52.396;10.696;2024-03-17T05:22:48;0.50;99.90
29551;DHT22;16488;52.396;10.696;2024-03-17T05:25:14;0.60;99.90
29551;DHT22;16488;52.396;10.696;2024-03-17T05:27:39;0.60;99.90
29551;DHT22;16488;52.396;10.696;2024-03-17T05:30:05;0.70;99.90
29551;DHT22;16488;52.396;10.696;2024-03-17T05:32:34;0.70;99.90
29551;DHT22;16488;52.396;10.696;2024-03-17T05:34:59;0.70;99.90
29551;DHT22;16488;52.396;10.696;2024-03-17T05:37:24;0.70;99.90
29551;DHT22;16488;52.396;10.696;2024-03-17T05:39:50;0.70;99.90
29551;DHT22;16488;52.396;10.696;2024-03-17T05:42:15;0.80;99.90
29551;DHT22;16488;52.396;10.696;2024-03-17T05:44:41;0.90;99.90
29551;DHT22;16488;52.396;10.696;2024-03-17T05:47:18;0.90;99.90
29551;DHT22;16488;52.396;10.696;2024-03-17T05:49:44;0.90;99.90
29551;DHT22;16488;52.396;10.696;2024-03-17T05:52:09;1.00;99.90
29551;DHT22;16488;52.396;10.696;2024-03-17T05:54:35;1.20;99.90
29551;DHT22;16488;52.396;10.696;2024-03-17T05:57:01;1.20;99.90
29551;DHT22;16488;52.396;10.696;2024-03-17T05:59:29;1.30;99.90
29551;DHT22;16488;52.396;10.696;2024-03-17T06:01:56;1.30;99.90
29551;DHT22;16488;52.396;10.696;2024-03-17T06:04:22;1.30;99.90
29551;DHT22;16488;52.396;10.696;2024-03-17T06:06:47;1.40;99.90
29551;DHT22;16488;52.396;10.696;2024-03-17T06:09:14;1.40;99.90
29551;DHT22;16488;52.396;10.696;2024-03-17T06:11:43;1.50;99.90
29551;DHT22;16488;52.396;10.696;2024-03-17T06:14:08;1.60;99.90
29551;DHT22;16488;52.396;10.696;2024-03-17T06:16:37;1.70;99.90
29551;DHT22;16488;52.396;10.696;2024-03-17T06:19:02;1.70;99.90
29551;DHT22;16488;52.396;10.696;2024-03-17T06:21:28;1.80;99.90
29551;DHT22;16488;52.396;10.696;2024-03-17T06:23:54;1.80;99.90
29551;DHT22;16488;52.396;10.696;2024-03-17T06:26:19;1.80;99.90
29551;DHT22;16488;52.396;10.696;2024-03-17T06:28:46;2.00;99.90
29551;DHT22;16488;52.396;10.696;2024-03-17T06:31:11;2.10;99.90
29551;DHT22;16488;52.396;10.696;2024-03-17T06:33:37;2.30;99.90
29551;DHT22;16488;52.396;10.696;2024-03-17T06:36:03;2.50;99.90
29551;DHT22;16488;52.396;10.696;2024-03-17T06:38:31;2.50;99.90
29551;DHT22;16488;52.396;10.696;2024-03-17T06:40:57;2.50;99.90
29551;DHT22;16488;52.396;10.696;2024-03-17T06:43:22;2.50;99.90
29551;DHT22;16488;52.396;10.696;2024-03-17T06:45:57;2.50;99.90
29551;DHT22;16488;52.396;10.696;2024-03-17T06:48:23;2.60;99.90
29551;DHT22;16488;52.396;10.696;2024-03-17T06:50:48;2.70;99.90
29551;DHT22;16488;52.396;10.696;2024-03-17T06:53:14;2.70;99.90
29551;DHT22;16488;52.396;10.696;2024-03-17T06:55:40;2.80;99.90
29551;DHT22;16488;52.396;10.696;2024-03-17T06:58:05;2.80;99.90
29551;DHT22;16488;52.396;10.696;2024-03-17T07:00:31;2.90;99.90
29551;DHT22;16488;52.396;10.696;2024-03-17T07:02:57;3.10;99.90
29551;DHT22;16488;52.396;10.696;2024-03-17T07:05:23;3.10;99.90
29551;DHT22;16488;52.396;10.696;2024-03-17T07:07:48;3.30;99.90
29551;DHT22;16488;52.396;10.696;2024-03-17T07:10:14;3.30;99.90
29551;DHT22;16488;52.396;10.696;2024-03-17T07:12:41;3.70;99.90
29551;DHT22;16488;52.396;10.696;2024-03-17T07:15:07;3.70;99.90
29551;DHT22;16488;52.396;10.696;2024-03-17T07:17:33;3.80;99.90
29551;DHT22;16488;52.396;10.696;2024-03-17T07:19:59;4.00;99.90
29551;DHT22;16488;52.396;10.696;2024-03-17T07:22:25;4.20;99.90
29551;DHT22;16488;52.396;10.696;2024-03-17T07:24:54;4.30;99.90
29551;DHT22;16488;52.396;10.696;2024-03-17T07:27:26;4.40;99.90
29551;DHT22;16488;52.396;10.696;2024-03-17T07:29:52;4.60;99.90
29551;DHT22;16488;52.396;10.696;2024-03-17T07:32:18;4.70;99.90
29551;DHT22;16488;52.396;10.696;2024-03-17T07:34:43;4.90;99.90
29551;DHT22;16488;52.396;10.696;2024-03-17T07:37:09;5.20;99.90
29551;DHT22;16488;52.396;10.696;2024-03-17T07:39:34;5.30;99.90
29551;DHT22;16488;52.396;10.696;2024-03-17T07:42:00;5.50;99.90
29551;DHT22;16488;52.396;10.696;2024-03-17T07:44:27;5.70;99.90
29551;DHT22;16488;52.396;10.696;2024-03-17T07:46:54;5.90;99.90
29551;DHT22;16488;52.396;10.696;2024-03-17T07:49:20;6.20;99.90
29551;DHT22;16488;52.396;10.696;2024-03-17T07:51:45;6.40;99.90
29551;DHT22;16488;52.396;10.696;2024-03-17T07:54:11;6.50;99.90
29551;DHT22;16488;52.396;10.696;2024-03-17T07:56:39;6.50;99.90
29551;DHT22;16488;52.396;10.696;2024-03-17T07:59:04;6.60;99.90
29551;DHT22;16488;52.396;10.696;2024-03-17T08:01:37;6.40;99.90
29551;DHT22;16488;52.396;10.696;2024-03-17T08:04:02;6.40;99.90
29551;DHT22;16488;52.396;10.696;2024-03-17T08:06:29;6.30;99.90
29551;DHT22;16488;52.396;10.696;2024-03-17T08:08:55;6.30;99.90
29551;DHT22;16488;52.396;10.696;2024-03-17T08:11:21;6.30;99.90
29551;DHT22;16488;52.396;10.696;2024-03-17T08:13:46;6.50;99.90
29551;DHT22;16488;52.396;10.696;2024-03-17T08:16:12;6.60;99.90
29551;DHT22;16488;52.396;10.696;2024-03-17T08:18:37;6.70;99.90
29551;DHT22;16488;52.396;10.696;2024-03-17T08:21:03;6.80;99.90
29551;DHT22;16488;52.396;10.696;2024-03-17T08:23:32;6.80;99.90
29551;DHT22;16488;52.396;10.696;2024-03-17T08:25:59;6.70;99.90
29551;DHT22;16488;52.396;10.696;2024-03-17T08:28:25;6.70;99.90
29551;DHT22;16488;52.396;10.696;2024-03-17T08:30:54;6.90;99.90
29551;DHT22;16488;52.396;10.696;2024-03-17T08:33:21;7.10;99.90
29551;DHT22;16488;52.396;10.696;2024-03-17T08:38:22;7.10;99.90
29551;DHT22;16488;52.396;10.696;2024-03-17T08:40:51;7.30;99.90
29551;DHT22;16488;52.396;10.696;2024-03-17T08:43:17;7.40;99.90
29551;DHT22;16488;52.396;10.696;2024-03-17T08:45:44;7.50;99.90
29551;DHT22;16488;52.396;10.696;2024-03-17T08:48:09;7.50;99.90
29551;DHT22;16488;52.396;10.696;2024-03-17T08:50:38;7.50;99.90
29551;DHT22;16488;52.396;10.696;2024-03-17T08:53:03;7.60;99.90
29551;DHT22;16488;52.396;10.696;2024-03-17T08:55:29;7.90;99.90
29551;DHT22;16488;52.396;10.696;2024-03-17T08:57:55;8.00;99.90
29551;DHT22;16488;52.396;10.696;2024-03-17T09:00:21;8.00;99.90
29551;DHT22;16488;52.396;10.696;2024-03-17T09:02:46;8.10;99.90
29551;DHT22;16488;52.396;10.696;2024-03-17T09:05:12;8.10;99.90
29551;DHT22;16488;52.396;10.696;2024-03-17T09:07:38;8.20;99.90
29551;DHT22;16488;52.396;10.696;2024-03-17T09:10:04;8.30;99.90
29551;DHT22;16488;52.396;10.696;2024-03-17T09:12:30;8.40;99.90
29551;DHT22;16488;52.396;10.696;2024-03-17T09:14:55;8.40;99.90
29551;DHT22;16488;52.396;10.696;2024-03-17T09:17:21;8.50;99.90
29551;DHT22;16488;52.396;10.696;2024-03-17T09:19:46;8.40;99.90
29551;DHT22;16488;52.396;10.696;2024-03-17T09:22:13;8.40;99.90
29551;DHT22;16488;52.396;10.696;2024-03-17T09:24:38;8.40;99.90
29551;DHT22;16488;52.396;10.696;2024-03-17T09:27:04;8.50;99.90
29551;DHT22;16488;52.396;10.696;2024-03-17T09:29:30;8.70;99.90
29551;DHT22;16488;52.396;10.696;2024-03-17T09:31:56;8.90;99.90
29551;DHT22;16488;52.396;10.696;2024-03-17T09:34:21;9.20;99.90
29551;DHT22;16488;52.396;10.696;2024-03-17T09:36:47;9.50;99.90
29551;DHT22;16488;52.396;10.696;2024-03-17T09:39:12;9.60;99.90
29551;DHT22;16488;52.396;10.696;2024-03-17T09:41:39;9.70;99.90
29551;DHT22;16488;52.396;10.696;2024-03-17T09:44:05;9.70;99.90
29551;DHT22;16488;52.396;10.696;2024-03-17T09:46:31;10.10;99.90
29551;DHT22;16488;52.396;10.696;2024-03-17T09:48:59;10.10;99.90
29551;DHT22;16488;52.396;10.696;2024-03-17T09:51:25;9.60;99.90
29551;DHT22;16488;52.396;10.696;2024-03-17T09:53:51;9.80;99.90
29551;DHT22;16488;52.396;10.696;2024-03-17T09:56:17;10.40;99.90
29551;DHT22;16488;52.396;10.696;2024-03-17T09:58:49;11.20;99.90
29551;DHT22;16488;52.396;10.696;2024-03-17T10:01:15;11.30;99.90
29551;DHT22;16488;52.396;10.696;2024-03-17T10:06:17;13.00;99.90
29551;DHT22;16488;52.396;10.696;2024-03-17T10:08:49;14.30;97.00
29551;DHT22;16488;52.396;10.696;2024-03-17T10:11:16;15.50;93.90
29551;DHT22;16488;52.396;10.696;2024-03-17T10:13:42;16.50;86.80
29551;DHT22;16488;52.396;10.696;2024-03-17T10:16:20;17.70;85.60
29551;DHT22;16488;52.396;10.696;2024-03-17T10:18:46;17.40;84.30
29551;DHT22;16488;52.396;10.696;2024-03-17T10:21:30;15.80;80.50
29551;DHT22;16488;52.396;10.696;2024-03-17T10:24:05;15.00;85.30
29551;DHT22;16488;52.396;10.696;2024-03-17T10:26:35;14.80;87.50
29551;DHT22;16488;52.396;10.696;2024-03-17T10:29:01;13.30;87.70
29551;DHT22;16488;52.396;10.696;2024-03-17T10:31:27;11.80;91.80
29551;DHT22;16488;52.396;10.696;2024-03-17T10:34:02;11.60;92.20
29551;DHT22;16488;52.396;10.696;2024-03-17T10:36:27;11.60;93.60
29551;DHT22;16488;52.396;10.696;2024-03-17T10:38:53;12.50;92.30
29551;DHT22;16488;52.396;10.696;2024-03-17T10:41:20;12.70;92.30
29551;DHT22;16488;52.396;10.696;2024-03-17T10:43:47;14.30;90.70
29551;DHT22;16488;52.396;10.696;2024-03-17T10:46:13;15.20;88.50
29551;DHT22;16488;52.396;10.696;2024-03-17T10:48:40;15.10;87.60
29551;DHT22;16488;52.396;10.696;2024-03-17T10:51:06;15.30;86.50
29551;DHT22;16488;52.396;10.696;2024-03-17T10:53:39;15.90;84.70
29551;DHT22;16488;52.396;10.696;2024-03-17T10:56:05;16.40;82.10
29551;DHT22;16488;52.396;10.696;2024-03-17T10:58:38;16.10;82.70
29551;DHT22;16488;52.396;10.696;2024-03-17T11:01:06;16.20;82.90
29551;DHT22;16488;52.396;10.696;2024-03-17T11:03:33;16.30;80.00
29551;DHT22;16488;52.396;10.696;2024-03-17T11:05:59;15.80;79.00
29551;DHT22;16488;52.396;10.696;2024-03-17T11:08:25;14.50;82.10
29551;DHT22;16488;52.396;10.696;2024-03-17T11:10:52;13.40;86.10
29551;DHT22;16488;52.396;10.696;2024-03-17T11:13:26;13.30;89.30
29551;DHT22;16488;52.396;10.696;2024-03-17T11:15:53;13.30;90.70
29551;DHT22;16488;52.396;10.696;2024-03-17T11:23:30;13.90;86.60
29551;DHT22;16488;52.396;10.696;2024-03-17T11:25:56;13.70;87.50
29551;DHT22;16488;52.396;10.696;2024-03-17T11:31:06;13.80;87.60
29551;DHT22;16488;52.396;10.696;2024-03-17T11:33:51;12.80;91.00
29551;DHT22;16488;52.396;10.696;2024-03-17T11:39:02;13.60;91.00
29551;DHT22;16488;52.396;10.696;2024-03-17T11:46:57;15.00;87.00
29551;DHT22;16488;52.396;10.696;2024-03-17T11:49:33;15.30;87.10
29551;DHT22;16488;52.396;10.696;2024-03-17T11:52:00;15.10;86.00
29551;DHT22;16488;52.396;10.696;2024-03-17T11:54:26;14.70;83.00
29551;DHT22;16488;52.396;10.696;2024-03-17T11:56:55;14.80;86.00
29551;DHT22;16488;52.396;10.696;2024-03-17T11:59:22;15.30;84.10
29551;DHT22;16488;52.396;10.696;2024-03-17T12:01:50;15.90;83.50
29551;DHT22;16488;52.396;10.696;2024-03-17T12:04:17;16.60;81.00
29551;DHT22;16488;52.396;10.696;2024-03-17T12:06:47;17.90;79.40
29551;DHT22;16488;52.396;10.696;2024-03-17T12:11:39;19.50;71.00
29551;DHT22;16488;52.396;10.696;2024-03-17T12:14:11;20.60;69.40
29551;DHT22;16488;52.396;10.696;2024-03-17T12:16:37;20.90;68.90
29551;DHT22;16488;52.396;10.696;2024-03-17T12:19:06;19.90;64.20
29551;DHT22;16488;52.396;10.696;2024-03-17T12:21:32;18.70;67.00
29551;DHT22;16488;52.396;10.696;2024-03-17T12:23:57;17.30;69.30
29551;DHT22;16488;52.396;10.696;2024-03-17T12:26:23;17.20;72.30
29551;DHT22;16488;52.396;10.696;2024-03-17T12:28:49;18.30;71.70
29551;DHT22;16488;52.396;10.696;2024-03-17T12:31:15;17.90;69.00
29551;DHT22;16488;52.396;10.696;2024-03-17T12:33:40;18.00;71.30
29551;DHT22;16488;52.396;10.696;2024-03-17T12:36:10;18.60;68.80
29551;DHT22;16488;52.396;10.696;2024-03-17T12:38:37;19.40;64.50
29551;DHT22;16488;52.396;10.696;2024-03-17T12:41:03;18.00;65.10
29551;DHT22;16488;52.396;10.696;2024-03-17T12:43:32;17.10;66.80
29551;DHT22;16488;52.396;10.696;2024-03-17T12:45:57;17.00;70.20
29551;DHT22;16488;52.396;10.696;2024-03-17T12:48:23;17.00;70.60
29551;DHT22;16488;52.396;10.696;2024-03-17T12:50:49;17.30;68.20
29551;DHT22;16488;52.396;10.696;2024-03-17T12:53:16;17.00;69.80
29551;DHT22;16488;52.396;10.696;2024-03-17T12:55:55;17.70;66.00
29551;DHT22;16488;52.396;10.696;2024-03-17T12:58:39;18.00;65.10
29551;DHT22;16488;52.396;10.696;2024-03-17T13:01:23;16.80;66.30
29551;DHT22;16488;52.396;10.696;2024-03-17T13:03:49;16.50;67.80
29551;DHT22;16488;52.396;10.696;2024-03-17T13:06:24;17.80;67.10
29551;DHT22;16488;52.396;10.696;2024-03-17T13:08:50;17.80;65.20
29551;DHT22;16488;52.396;10.696;2024-03-17T13:11:16;17.60;66.40
29551;DHT22;16488;52.396;10.696;2024-03-17T13:13:41;17.40;65.10
29551;DHT22;16488;52.396;10.696;2024-03-17T13:16:07;16.00;67.50
29551;DHT22;16488;52.396;10.696;2024-03-17T13:18:34;15.80;69.10
29551;DHT22;16488;52.396;10.696;2024-03-17T13:20:59;16.20;67.40
29551;DHT22;16488;52.396;10.696;2024-03-17T13:23:26;16.40;67.60
29551;DHT22;16488;52.396;10.696;2024-03-17T13:25:52;16.90;66.90
29551;DHT22;16488;52.396;10.696;2024-03-17T13:28:17;16.40;65.00
29551;DHT22;16488;52.396;10.696;2024-03-17T13:30:43;15.50;67.90
29551;DHT22;16488;52.396;10.696;2024-03-17T13:33:09;15.10;69.00
29551;DHT22;16488;52.396;10.696;2024-03-17T13:35:37;15.40;69.50
29551;DHT22;16488;52.396;10.696;2024-03-17T13:38:05;16.50;66.60
29551;DHT22;16488;52.396;10.696;2024-03-17T13:40:32;17.80;64.10
29551;DHT22;16488;52.396;10.696;2024-03-17T13:42:58;18.80;62.10
29551;DHT22;16488;52.396;10.696;2024-03-17T13:45:24;19.10;60.50
29551;DHT22;16488;52.396;10.696;2024-03-17T13:47:57;17.20;62.20
29551;DHT22;16488;52.396;10.696;2024-03-17T13:50:22;16.70;66.80
29551;DHT22;16488;52.396;10.696;2024-03-17T13:52:48;16.60;64.10
29551;DHT22;16488;52.396;10.696;2024-03-17T13:55:15;16.80;63.70
29551;DHT22;16488;52.396;10.696;2024-03-17T13:57:44;16.30;64.30
29551;DHT22;16488;52.396;10.696;2024-03-17T14:00:10;17.10;67.10
29551;DHT22;16488;52.396;10.696;2024-03-17T14:02:44;18.50;62.80
29551;DHT22;16488;52.396;10.696;2024-03-17T14:05:14;20.00;62.40
29551;DHT22;16488;52.396;10.696;2024-03-17T14:07:40;21.90;56.80
29551;DHT22;16488;52.396;10.696;2024-03-17T14:10:06;22.70;56.10
29551;DHT22;16488;52.396;10.696;2024-03-17T14:12:34;22.20;51.20
29551;DHT22;16488;52.396;10.696;2024-03-17T14:14:59;21.40;54.30
29551;DHT22;16488;52.396;10.696;2024-03-17T14:17:25;20.90;53.50
29551;DHT22;16488;52.396;10.696;2024-03-17T14:19:50;20.30;55.60
29551;DHT22;16488;52.396;10.696;2024-03-17T14:22:16;20.20;57.00
29551;DHT22;16488;52.396;10.696;2024-03-17T14:24:41;19.90;55.90
29551;DHT22;16488;52.396;10.696;2024-03-17T14:27:07;19.40;55.40
29551;DHT22;16488;52.396;10.696;2024-03-17T14:29:33;18.60;59.70
29551;DHT22;16488;52.396;10.696;2024-03-17T14:31:58;18.80;60.30
29551;DHT22;16488;52.396;10.696;2024-03-17T14:34:24;20.00;58.20
29551;DHT22;16488;52.396;10.696;2024-03-17T14:36:49;20.80;55.20
29551;DHT22;16488;52.396;10.696;2024-03-17T14:39:15;20.60;52.50
29551;DHT22;16488;52.396;10.696;2024-03-17T14:41:40;19.90;55.90
29551;DHT22;16488;52.396;10.696;2024-03-17T14:44:06;19.50;56.60
29551;DHT22;16488;52.396;10.696;2024-03-17T14:46:31;20.00;56.80
29551;DHT22;16488;52.396;10.696;2024-03-17T14:48:57;20.80;54.50
29551;DHT22;16488;52.396;10.696;2024-03-17T14:51:23;20.90;54.10
29551;DHT22;16488;52.396;10.696;2024-03-17T14:53:48;21.40;52.40
29551;DHT22;16488;52.396;10.696;2024-03-17T14:56:19;20.40;52.70
29551;DHT22;16488;52.396;10.696;2024-03-17T14:58:45;19.00;55.30
29551;DHT22;16488;52.396;10.696;2024-03-17T15:01:12;17.30;58.30
29551;DHT22;16488;52.396;10.696;2024-03-17T15:03:38;16.30;61.40
29551;DHT22;16488;52.396;10.696;2024-03-17T15:06:13;15.80;63.50
29551;DHT22;16488;52.396;10.696;2024-03-17T15:08:40;16.00;63.30
29551;DHT22;16488;52.396;10.696;2024-03-17T15:11:06;16.10;63.60
29551;DHT22;16488;52.396;10.696;2024-03-17T15:13:33;16.00;65.80
29551;DHT22;16488;52.396;10.696;2024-03-17T15:15:59;15.80;65.80
29551;DHT22;16488;52.396;10.696;2024-03-17T15:18:25;15.80;65.70
29551;DHT22;16488;52.396;10.696;2024-03-17T15:20:53;15.40;65.80
29551;DHT22;16488;52.396;10.696;2024-03-17T15:23:20;15.10;66.90
29551;DHT22;16488;52.396;10.696;2024-03-17T15:25:46;15.00;68.30
29551;DHT22;16488;52.396;10.696;2024-03-17T15:28:11;14.90;69.60
29551;DHT22;16488;52.396;10.696;2024-03-17T15:30:38;14.70;69.60
29551;DHT22;16488;52.396;10.696;2024-03-17T15:33:03;14.60;69.00
29551;DHT22;16488;52.396;10.696;2024-03-17T15:35:29;14.50;69.40
29551;DHT22;16488;52.396;10.696;2024-03-17T15:37:56;14.40;70.50
29551;DHT22;16488;52.396;10.696;2024-03-17T15:40:22;14.20;69.90
29551;DHT22;16488;52.396;10.696;2024-03-17T15:42:48;14.10;72.30
29551;DHT22;16488;52.396;10.696;2024-03-17T15:45:17;13.80;72.60